createdAt,value
2023-09-17T00:01:15.154Z,24.44
2023-09-17T00:03:42.231Z,24.52
2023-09-17T00:06:11.650Z,24.58
2023-09-17T00:08:39.213Z,24.63
2023-09-17T00:11:07.305Z,24.70
2023-09-17T00:13:34.464Z,24.70
2023-09-17T00:16:01.646Z,24.70
2023-09-17T00:18:29.128Z,24.69
2023-09-17T00:20:55.881Z,24.61
2023-09-17T00:23:22.643Z,24.61
2023-09-17T00:25:49.503Z,24.66
2023-09-17T00:28:16.438Z,24.63
2023-09-17T00:30:44.416Z,24.66
2023-09-17T00:33:11.174Z,24.72
2023-09-17T00:35:37.910Z,24.72
2023-09-17T00:38:05.209Z,24.79
2023-09-17T00:40:35.414Z,24.75
2023-09-17T00:43:03.104Z,24.78
2023-09-17T00:45:31.717Z,24.68
2023-09-17T00:47:58.933Z,24.56
2023-09-17T00:50:26.357Z,24.59
2023-09-17T00:52:53.195Z,24.70
2023-09-17T00:55:20.595Z,24.68
2023-09-17T00:57:48.857Z,24.67
2023-09-17T01:00:16.073Z,24.68
2023-09-17T01:02:43.850Z,24.63
2023-09-17T01:05:11.208Z,24.66
2023-09-17T01:07:39.366Z,24.58
2023-09-17T01:10:07.634Z,24.59
2023-09-17T01:12:35.789Z,24.56
2023-09-17T01:15:09.992Z,24.64
2023-09-17T01:17:37.229Z,24.62
2023-09-17T01:20:25.503Z,24.56
2023-09-17T01:22:56.993Z,24.54
2023-09-17T01:25:32.631Z,24.47
2023-09-17T01:28:01.878Z,24.52
2023-09-17T01:30:28.717Z,24.65
2023-09-17T01:32:55.491Z,24.67
2023-09-17T01:35:22.779Z,24.58
2023-09-17T01:37:55.638Z,24.43
2023-09-17T01:40:23.619Z,24.52
2023-09-17T01:42:52.311Z,24.48
2023-09-17T01:45:19.562Z,24.50
2023-09-17T01:47:49.102Z,24.47
2023-09-17T01:50:20.632Z,24.45
2023-09-17T01:52:47.549Z,24.44
2023-09-17T01:55:14.444Z,24.41
2023-09-17T01:57:42.279Z,24.42
2023-09-17T02:00:17.813Z,24.39
2023-09-17T02:02:48.508Z,24.27
2023-09-17T02:05:18.925Z,24.10
2023-09-17T02:07:45.996Z,24.05
2023-09-17T02:10:13.268Z,23.99
2023-09-17T02:12:40.975Z,23.89
2023-09-17T02:15:10.640Z,23.74
2023-09-17T02:17:37.596Z,23.81
2023-09-17T02:20:12.096Z,23.71
2023-09-17T02:22:39.931Z,23.65
2023-09-17T02:25:07.976Z,23.54
2023-09-17T02:27:35.429Z,23.46
2023-09-17T02:30:02.302Z,23.50
2023-09-17T02:32:29.910Z,23.35
2023-09-17T02:34:57.606Z,23.35
2023-09-17T02:37:24.949Z,23.36
2023-09-17T02:39:52.693Z,23.29
2023-09-17T02:42:19.402Z,23.31
2023-09-17T02:44:46.137Z,23.21
2023-09-17T02:47:12.954Z,23.11
2023-09-17T02:49:39.699Z,23.20
2023-09-17T02:52:07.894Z,23.30
2023-09-17T02:54:35.356Z,23.31
2023-09-17T02:57:02.378Z,23.36
2023-09-17T02:59:29.294Z,23.24
2023-09-17T03:01:56.243Z,23.30
2023-09-17T03:04:25.463Z,23.23
2023-09-17T03:06:53.138Z,23.39
2023-09-17T03:09:19.831Z,23.36
2023-09-17T03:11:48.118Z,23.21
2023-09-17T03:14:14.796Z,23.21
2023-09-17T03:16:41.545Z,23.22
2023-09-17T03:19:08.414Z,23.20
2023-09-17T03:21:41.726Z,23.18
2023-09-17T03:24:09.399Z,23.16
2023-09-17T03:26:39.293Z,23.12
2023-09-17T03:29:06.446Z,22.99
2023-09-17T03:31:33.976Z,22.99
2023-09-17T03:34:01.909Z,22.94
2023-09-17T03:36:28.893Z,22.92
2023-09-17T03:38:55.713Z,22.93
2023-09-17T03:41:22.697Z,22.90
2023-09-17T03:43:49.783Z,22.84
2023-09-17T03:46:16.943Z,22.83
2023-09-17T03:48:43.638Z,22.76
2023-09-17T03:51:10.857Z,22.75
2023-09-17T03:53:38.905Z,22.78
2023-09-17T03:56:05.754Z,22.73
2023-09-17T03:58:32.703Z,22.71
2023-09-17T04:00:59.462Z,22.64
2023-09-17T04:03:26.649Z,22.69
2023-09-17T04:05:54.101Z,22.64
2023-09-17T04:08:20.776Z,22.63
2023-09-17T04:10:47.527Z,22.53
2023-09-17T04:13:14.298Z,22.53
2023-09-17T04:15:41.045Z,22.49
2023-09-17T04:18:08.185Z,22.45
2023-09-17T04:20:35.364Z,22.42
2023-09-17T04:23:03.760Z,22.43
2023-09-17T04:25:31.382Z,22.44
2023-09-17T04:27:58.482Z,22.41
2023-09-17T04:30:25.257Z,22.35
2023-09-17T04:32:54.135Z,22.40
2023-09-17T04:35:21.031Z,22.35
2023-09-17T04:37:50.157Z,22.39
2023-09-17T04:40:26.727Z,22.24
2023-09-17T04:42:53.667Z,22.30
2023-09-17T04:45:38.992Z,22.30
2023-09-17T04:48:12.465Z,22.30
2023-09-17T04:50:45.521Z,22.32
2023-09-17T04:53:14.518Z,22.15
2023-09-17T04:55:42.792Z,22.19
2023-09-17T04:58:09.808Z,22.10
2023-09-17T05:00:38.014Z,22.16
2023-09-17T05:03:06.231Z,22.13
2023-09-17T05:05:34.570Z,22.11
2023-09-17T05:08:01.815Z,22.08
2023-09-17T05:10:29.063Z,22.10
2023-09-17T05:12:57.702Z,22.14
2023-09-17T05:15:24.637Z,22.11
2023-09-17T05:17:54.290Z,22.08
2023-09-17T05:20:22.658Z,22.09
2023-09-17T05:22:50.174Z,22.06
2023-09-17T05:25:17.239Z,22.07
2023-09-17T05:27:44.911Z,22.01
2023-09-17T05:30:12.109Z,22.12
2023-09-17T05:32:40.351Z,22.14
2023-09-17T05:35:08.803Z,22.17
2023-09-17T05:37:35.968Z,22.18
2023-09-17T05:40:06.432Z,22.32
2023-09-17T05:42:33.236Z,22.40
2023-09-17T05:44:59.991Z,22.49
2023-09-17T05:47:26.849Z,22.51
2023-09-17T05:49:56.844Z,22.68
2023-09-17T05:52:24.997Z,22.78
2023-09-17T05:54:51.738Z,23.25
2023-09-17T05:57:18.841Z,23.60
2023-09-17T05:59:45.573Z,23.74
2023-09-17T06:02:15.205Z,24.01
2023-09-17T06:04:42.405Z,24.24
2023-09-17T06:07:09.704Z,24.48
2023-09-17T06:09:36.409Z,24.49
2023-09-17T06:12:03.322Z,24.64
2023-09-17T06:14:30.108Z,24.67
2023-09-17T06:16:58.480Z,24.67
2023-09-17T06:19:27.626Z,24.74
2023-09-17T06:21:55.598Z,25.06
2023-09-17T06:24:22.480Z,25.28
2023-09-17T06:26:49.216Z,25.53
2023-09-17T06:29:16.770Z,26.02
2023-09-17T06:31:44.305Z,26.81
2023-09-17T06:34:11.463Z,27.47
2023-09-17T06:36:39.399Z,28.25
2023-09-17T06:39:08.128Z,29.15
2023-09-17T06:41:38.112Z,30.24
2023-09-17T06:44:05.763Z,31.35
2023-09-17T06:46:33.209Z,32.31
2023-09-17T06:49:00.357Z,33.49
2023-09-17T06:51:27.161Z,34.22
2023-09-17T06:53:54.249Z,34.55
2023-09-17T06:56:24.660Z,34.62
2023-09-17T06:58:51.597Z,34.55
2023-09-17T07:01:19.281Z,35.23
2023-09-17T07:03:45.969Z,35.45
2023-09-17T07:06:12.760Z,35.98
2023-09-17T07:08:39.436Z,35.60
2023-09-17T07:11:06.342Z,36.33
2023-09-17T07:13:33.157Z,37.16
2023-09-17T07:15:59.927Z,37.19
2023-09-17T07:18:27.485Z,37.78
2023-09-17T07:20:54.285Z,38.43
2023-09-17T07:23:20.929Z,38.36
2023-09-17T07:25:47.964Z,38.33
2023-09-17T07:28:14.905Z,38.27
2023-09-17T07:30:41.706Z,37.12
2023-09-17T07:33:08.574Z,37.51
2023-09-17T07:35:36.783Z,38.85
2023-09-17T07:38:03.605Z,40.07
2023-09-17T07:40:30.617Z,41.18
2023-09-17T07:42:57.428Z,42.86
2023-09-17T07:45:24.163Z,43.56
2023-09-17T07:47:51.031Z,44.74
2023-09-17T07:50:17.994Z,45.14
2023-09-17T07:52:44.769Z,45.31
2023-09-17T07:55:11.674Z,44.98
2023-09-17T07:57:38.460Z,45.50
2023-09-17T08:00:07.159Z,46.55
2023-09-17T08:02:39.736Z,47.02
2023-09-17T08:05:08.375Z,48.36
2023-09-17T08:07:36.964Z,49.26
2023-09-17T08:10:04.803Z,50.16
2023-09-17T08:12:34.244Z,48.36
2023-09-17T08:15:01.387Z,50.24
2023-09-17T08:17:28.451Z,50.16
2023-09-17T08:19:55.441Z,49.77
2023-09-17T08:22:27.278Z,48.79
2023-09-17T08:25:11.430Z,48.97
2023-09-17T08:27:58.083Z,50.11
2023-09-17T08:30:45.045Z,48.75
2023-09-17T08:33:32.353Z,51.28
2023-09-17T08:36:10.332Z,51.45
2023-09-17T08:38:37.252Z,50.48
2023-09-17T08:41:07.950Z,49.33
2023-09-17T08:43:34.833Z,50.03
2023-09-17T08:46:04.645Z,51.66
2023-09-17T08:48:32.030Z,50.24
2023-09-17T08:51:00.482Z,50.61
2023-09-17T08:53:31.818Z,48.93
2023-09-17T08:56:00.426Z,48.60
2023-09-17T08:58:40.087Z,48.67
2023-09-17T09:01:10.114Z,48.51
2023-09-17T09:03:38.018Z,48.56
2023-09-17T09:06:05.295Z,49.58
2023-09-17T09:08:32.816Z,49.23
2023-09-17T09:11:02.007Z,49.47
2023-09-17T09:13:29.808Z,48.73
2023-09-17T09:15:57.882Z,49.03
2023-09-17T09:18:25.496Z,49.07
2023-09-17T09:20:52.312Z,48.58
2023-09-17T09:23:19.292Z,48.47
2023-09-17T09:25:46.958Z,47.65
2023-09-17T09:28:13.786Z,46.83
2023-09-17T09:30:43.046Z,46.71
2023-09-17T09:33:10.134Z,47.20
2023-09-17T09:35:37.030Z,47.65
2023-09-17T09:38:04.068Z,47.42
2023-09-17T09:40:32.039Z,46.13
2023-09-17T09:42:58.924Z,46.20
2023-09-17T09:45:25.793Z,45.91
2023-09-17T09:47:53.458Z,45.91
2023-09-17T09:50:23.769Z,46.80
2023-09-17T09:52:50.884Z,46.10
2023-09-17T09:55:17.808Z,46.02
2023-09-17T09:57:46.557Z,45.76
2023-09-17T10:00:15.128Z,44.47
2023-09-17T10:02:43.853Z,45.10
2023-09-17T10:05:19.605Z,45.65
2023-09-17T10:07:48.436Z,44.65
2023-09-17T10:10:16.117Z,44.79
2023-09-17T10:12:43.386Z,44.24
2023-09-17T10:15:10.859Z,43.82
2023-09-17T10:17:38.614Z,43.33
2023-09-17T10:20:10.358Z,42.76
2023-09-17T10:22:39.484Z,42.49
2023-09-17T10:25:09.542Z,41.87
2023-09-17T10:27:37.963Z,41.94
2023-09-17T10:30:06.089Z,41.46
2023-09-17T10:32:36.101Z,41.54
2023-09-17T10:35:04.889Z,41.52
2023-09-17T10:37:34.863Z,41.45
2023-09-17T10:40:02.469Z,42.27
2023-09-17T10:42:30.960Z,42.25
2023-09-17T10:45:00.319Z,42.18
2023-09-17T10:47:27.739Z,42.00
2023-09-17T10:49:55.044Z,42.71
2023-09-17T10:52:22.780Z,43.69
2023-09-17T10:54:49.536Z,43.83
2023-09-17T10:57:28.985Z,44.56
2023-09-17T10:59:58.925Z,44.92
2023-09-17T11:02:30.031Z,44.81
2023-09-17T11:04:58.787Z,45.50
2023-09-17T11:07:27.194Z,46.41
2023-09-17T11:09:54.234Z,46.89
2023-09-17T11:12:24.641Z,46.43
2023-09-17T11:14:52.723Z,46.49
2023-09-17T11:17:19.542Z,46.45
2023-09-17T11:19:46.424Z,46.43
2023-09-17T11:22:13.801Z,46.38
2023-09-17T11:24:41.611Z,46.85
2023-09-17T11:27:12.712Z,46.98
2023-09-17T11:29:40.367Z,45.78
2023-09-17T11:32:07.868Z,46.70
2023-09-17T11:34:37.230Z,47.46
2023-09-17T11:37:05.861Z,47.42
2023-09-17T11:39:37.588Z,47.57
2023-09-17T11:42:08.501Z,47.24
2023-09-17T11:44:37.163Z,46.42
2023-09-17T11:47:05.480Z,47.24
2023-09-17T11:49:32.519Z,48.33
2023-09-17T11:52:00.900Z,48.34
2023-09-17T11:54:35.125Z,48.85
2023-09-17T11:57:02.118Z,49.88
2023-09-17T11:59:29.586Z,49.26
2023-09-17T12:01:58.298Z,49.69
2023-09-17T12:04:36.907Z,48.60
2023-09-17T12:07:09.386Z,47.79
2023-09-17T12:09:38.684Z,47.34
2023-09-17T12:12:06.540Z,46.12
2023-09-17T12:14:33.885Z,46.98
2023-09-17T12:17:02.561Z,46.74
2023-09-17T12:19:30.353Z,47.20
2023-09-17T12:22:00.159Z,46.87
2023-09-17T12:24:50.665Z,47.11
2023-09-17T12:27:34.234Z,45.48
2023-09-17T12:30:01.022Z,44.79
2023-09-17T12:32:31.631Z,43.53
2023-09-17T12:34:58.915Z,42.48
2023-09-17T12:37:29.262Z,41.96
2023-09-17T12:39:56.058Z,41.22
2023-09-17T12:42:22.914Z,41.13
2023-09-17T12:44:51.232Z,40.49
2023-09-17T12:47:19.743Z,39.88
2023-09-17T12:49:46.866Z,39.11
2023-09-17T12:52:14.433Z,39.32
2023-09-17T12:54:41.367Z,39.28
2023-09-17T12:57:08.388Z,38.94
2023-09-17T12:59:39.153Z,38.98
2023-09-17T13:02:07.925Z,38.51
2023-09-17T13:04:36.094Z,38.59
2023-09-17T13:07:18.991Z,38.00
2023-09-17T13:09:46.893Z,37.81
2023-09-17T13:12:22.007Z,37.76
2023-09-17T13:14:51.540Z,38.35
2023-09-17T13:17:23.265Z,38.46
2023-09-17T13:19:50.758Z,38.51
2023-09-17T13:22:19.422Z,38.60
2023-09-17T13:24:46.548Z,38.12
2023-09-17T13:27:17.431Z,38.08
2023-09-17T13:29:49.669Z,38.19
2023-09-17T13:32:18.096Z,37.80
2023-09-17T13:34:46.046Z,37.53
2023-09-17T13:37:13.891Z,37.56
2023-09-17T13:39:42.168Z,37.11
2023-09-17T13:42:09.540Z,37.30
2023-09-17T13:44:36.840Z,37.36
2023-09-17T13:47:04.583Z,37.22
2023-09-17T13:49:31.782Z,36.69
2023-09-17T13:51:58.461Z,36.61
2023-09-17T13:54:25.190Z,36.74
2023-09-17T13:56:51.871Z,36.87
2023-09-17T13:59:18.625Z,36.98
2023-09-17T14:01:46.468Z,37.00
2023-09-17T14:04:13.542Z,37.14
2023-09-17T14:06:40.331Z,37.13
2023-09-17T14:09:07.081Z,36.89
2023-09-17T14:11:33.859Z,37.05
2023-09-17T14:14:00.686Z,36.43
2023-09-17T14:16:27.540Z,36.74
2023-09-17T14:18:54.489Z,36.71
2023-09-17T14:21:21.306Z,36.82
2023-09-17T14:23:47.973Z,36.84
2023-09-17T14:26:14.754Z,36.80
2023-09-17T14:28:41.504Z,36.63
2023-09-17T14:31:08.899Z,36.39
2023-09-17T14:33:35.695Z,36.28
2023-09-17T14:36:02.562Z,36.50
2023-09-17T14:38:29.321Z,36.46
2023-09-17T14:40:56.075Z,36.55
2023-09-17T14:43:22.935Z,36.88
2023-09-17T14:45:49.664Z,36.71
2023-09-17T14:48:16.378Z,36.66
2023-09-17T14:50:43.184Z,36.76
2023-09-17T14:53:09.994Z,36.83
2023-09-17T14:55:36.779Z,36.76
2023-09-17T14:58:03.804Z,36.53
2023-09-17T15:00:30.563Z,36.47
2023-09-17T15:02:57.503Z,36.56
2023-09-17T15:05:24.439Z,36.24
2023-09-17T15:07:51.240Z,36.37
2023-09-17T15:10:18.123Z,36.36
2023-09-17T15:12:44.886Z,36.32
2023-09-17T15:15:11.793Z,35.95
2023-09-17T15:17:38.541Z,35.70
2023-09-17T15:20:05.883Z,35.52
2023-09-17T15:22:34.587Z,35.30
2023-09-17T15:25:01.482Z,35.15
2023-09-17T15:27:29.048Z,35.01
2023-09-17T15:29:55.862Z,34.79
2023-09-17T15:32:24.007Z,34.42
2023-09-17T15:34:51.222Z,34.48
2023-09-17T15:37:18.060Z,34.33
2023-09-17T15:39:45.666Z,34.30
2023-09-17T15:42:12.480Z,34.42
2023-09-17T15:44:39.259Z,34.33
2023-09-17T15:47:06.112Z,34.22
2023-09-17T15:49:32.825Z,34.34
2023-09-17T15:51:59.777Z,34.35
2023-09-17T15:54:26.466Z,34.35
2023-09-17T15:56:53.246Z,34.33
2023-09-17T15:59:20.051Z,34.34
2023-09-17T16:01:46.906Z,34.31
2023-09-17T16:04:13.926Z,34.15
2023-09-17T16:06:42.038Z,34.17
2023-09-17T16:09:08.785Z,34.01
2023-09-17T16:11:35.486Z,33.63
2023-09-17T16:14:02.315Z,33.73
2023-09-17T16:16:29.075Z,33.85
2023-09-17T16:18:55.891Z,33.70
2023-09-17T16:21:22.611Z,33.68
2023-09-17T16:23:49.362Z,33.76
2023-09-17T16:26:16.438Z,33.70
2023-09-17T16:28:43.235Z,33.47
2023-09-17T16:31:10.136Z,33.50
2023-09-17T16:33:36.973Z,33.45
2023-09-17T16:36:03.837Z,33.43
2023-09-17T16:38:31.113Z,33.48
2023-09-17T16:41:00.980Z,33.60
2023-09-17T16:43:28.657Z,33.49
2023-09-17T16:45:55.447Z,33.32
2023-09-17T16:48:22.165Z,33.25
2023-09-17T16:50:48.902Z,33.13
2023-09-17T16:53:16.028Z,33.03
2023-09-17T16:55:42.998Z,32.98
2023-09-17T16:58:09.847Z,32.85
2023-09-17T17:00:36.519Z,32.78
2023-09-17T17:03:03.513Z,32.59
2023-09-17T17:05:30.298Z,32.42
2023-09-17T17:07:58.942Z,32.30
2023-09-17T17:10:25.883Z,32.20
2023-09-17T17:12:52.566Z,32.11
2023-09-17T17:15:19.389Z,31.96
2023-09-17T17:17:46.065Z,31.77
2023-09-17T17:20:13.884Z,31.67
2023-09-17T17:22:49.266Z,31.55
2023-09-17T17:25:16.636Z,31.38
2023-09-17T17:27:47.437Z,31.28
2023-09-17T17:30:14.302Z,31.17
2023-09-17T17:32:43.426Z,31.04
2023-09-17T17:35:10.522Z,30.95
2023-09-17T17:37:38.072Z,30.77
2023-09-17T17:40:05.405Z,30.58
2023-09-17T17:42:32.159Z,30.46
2023-09-17T17:44:58.834Z,30.27
2023-09-17T17:47:27.107Z,30.15
2023-09-17T17:49:56.319Z,30.12
2023-09-17T17:52:23.136Z,30.01
2023-09-17T17:54:50.216Z,29.92
2023-09-17T17:57:21.063Z,29.88
2023-09-17T17:59:47.846Z,29.79
2023-09-17T18:02:15.239Z,29.60
2023-09-17T18:04:42.376Z,29.55
2023-09-17T18:07:11.802Z,29.41
2023-09-17T18:09:38.677Z,29.31
2023-09-17T18:12:05.656Z,29.19
2023-09-17T18:14:32.755Z,29.15
2023-09-17T18:16:59.574Z,29.11
2023-09-17T18:19:26.640Z,29.05
2023-09-17T18:21:53.381Z,29.00
2023-09-17T18:24:24.573Z,28.95
2023-09-17T18:26:51.988Z,28.90
2023-09-17T18:29:22.217Z,28.87
2023-09-17T18:31:49.053Z,28.80
2023-09-17T18:34:15.919Z,28.81
2023-09-17T18:36:42.788Z,28.77
2023-09-17T18:39:09.603Z,28.74
2023-09-17T18:41:36.435Z,28.69
2023-09-17T18:44:03.190Z,28.65
2023-09-17T18:46:33.676Z,28.59
2023-09-17T18:49:00.836Z,28.51
2023-09-17T18:51:28.194Z,28.46
2023-09-17T18:53:57.160Z,28.44
2023-09-17T18:56:24.203Z,28.46
2023-09-17T18:58:51.498Z,28.37
2023-09-17T19:01:20.018Z,28.27
2023-09-17T19:03:47.417Z,28.27
2023-09-17T19:06:14.867Z,28.28
2023-09-17T19:08:41.709Z,28.15
2023-09-17T19:11:11.762Z,27.95
2023-09-17T19:13:38.524Z,27.86
2023-09-17T19:16:05.288Z,27.78
2023-09-17T19:18:32.024Z,27.82
2023-09-17T19:21:13.240Z,27.76
2023-09-17T19:23:41.159Z,27.80
2023-09-17T19:26:09.147Z,27.79
2023-09-17T19:28:36.382Z,27.80
2023-09-17T19:31:03.458Z,27.74
2023-09-17T19:33:31.589Z,27.77
2023-09-17T19:35:59.988Z,27.72
2023-09-17T19:38:27.528Z,27.67
2023-09-17T19:40:54.304Z,27.63
2023-09-17T19:43:21.893Z,27.60
2023-09-17T19:45:51.518Z,27.52
2023-09-17T19:48:18.732Z,27.58
2023-09-17T19:50:48.409Z,27.53
2023-09-17T19:53:16.543Z,27.56
2023-09-17T19:55:43.252Z,27.43
2023-09-17T19:58:11.623Z,27.49
2023-09-17T20:00:38.385Z,27.53
2023-09-17T20:03:05.534Z,27.52
2023-09-17T20:05:35.048Z,27.39
2023-09-17T20:08:02.202Z,27.32
2023-09-17T20:10:29.001Z,27.32
2023-09-17T20:12:55.659Z,27.21
2023-09-17T20:15:25.297Z,27.15
2023-09-17T20:17:54.116Z,27.02
2023-09-17T20:20:21.085Z,27.08
2023-09-17T20:22:48.547Z,27.05
2023-09-17T20:25:16.648Z,27.00
2023-09-17T20:27:58.699Z,26.91
2023-09-17T20:30:27.610Z,26.83
2023-09-17T20:32:57.952Z,26.81
2023-09-17T20:35:25.195Z,26.73
2023-09-17T20:37:52.070Z,26.70
2023-09-17T20:40:18.947Z,26.72
2023-09-17T20:42:47.320Z,26.69
2023-09-17T20:45:17.406Z,26.60
2023-09-17T20:47:45.241Z,26.62
2023-09-17T20:50:12.214Z,26.56
2023-09-17T20:52:39.660Z,26.46
2023-09-17T20:55:07.985Z,26.41
2023-09-17T20:57:35.465Z,26.48
2023-09-17T21:00:06.205Z,26.38
2023-09-17T21:02:33.225Z,26.36
2023-09-17T21:05:01.218Z,26.36
2023-09-17T21:07:28.698Z,26.33
2023-09-17T21:09:55.922Z,26.30
2023-09-17T21:12:24.041Z,26.27
2023-09-17T21:14:51.426Z,26.21
2023-09-17T21:17:19.545Z,26.25
2023-09-17T21:19:46.579Z,26.19
2023-09-17T21:22:13.779Z,26.17
2023-09-17T21:24:40.551Z,26.14
2023-09-17T21:27:07.325Z,26.12
2023-09-17T21:29:35.337Z,26.15
2023-09-17T21:32:03.432Z,26.13
2023-09-17T21:34:30.432Z,26.02
2023-09-17T21:36:57.213Z,26.07
2023-09-17T21:39:28.875Z,26.10
2023-09-17T21:41:57.315Z,26.08
2023-09-17T21:44:24.706Z,26.14
2023-09-17T21:46:55.028Z,26.16
2023-09-17T21:49:22.449Z,26.14
2023-09-17T21:51:49.378Z,26.10
2023-09-17T21:54:16.102Z,26.11
2023-09-17T21:56:43.281Z,26.13
2023-09-17T21:59:10.345Z,26.05
2023-09-17T22:01:37.145Z,26.13
2023-09-17T22:04:04.287Z,26.11
2023-09-17T22:06:31.310Z,26.04
2023-09-17T22:08:58.093Z,26.04
2023-09-17T22:11:24.912Z,26.04
2023-09-17T22:13:51.802Z,25.97
2023-09-17T22:16:18.693Z,25.94
2023-09-17T22:18:45.464Z,25.92
2023-09-17T22:21:12.311Z,25.93
2023-09-17T22:23:39.185Z,25.94
2023-09-17T22:26:09.680Z,25.79
2023-09-17T22:28:36.921Z,25.78
2023-09-17T22:31:14.121Z,25.78
2023-09-17T22:33:43.242Z,25.81
2023-09-17T22:36:11.009Z,25.79
2023-09-17T22:38:43.554Z,25.71
2023-09-17T22:41:21.878Z,25.75
2023-09-17T22:43:50.574Z,25.76
2023-09-17T22:46:18.946Z,25.78
2023-09-17T22:48:51.294Z,25.75
2023-09-17T22:51:19.247Z,25.83
2023-09-17T22:53:50.779Z,25.86
2023-09-17T22:56:17.675Z,25.85
2023-09-17T22:58:44.509Z,25.87
2023-09-17T23:01:13.065Z,25.91
2023-09-17T23:03:40.732Z,25.98
2023-09-17T23:06:07.580Z,26.03
2023-09-17T23:08:34.265Z,26.07
2023-09-17T23:11:06.199Z,26.10
2023-09-17T23:13:33.971Z,26.09
2023-09-17T23:16:01.319Z,26.09
2023-09-17T23:18:31.225Z,26.08
2023-09-17T23:20:58.795Z,26.03
2023-09-17T23:23:25.650Z,26.05
2023-09-17T23:25:55.982Z,25.99
2023-09-17T23:28:24.411Z,25.88
2023-09-17T23:30:54.581Z,25.91
2023-09-17T23:33:21.337Z,25.86
2023-09-17T23:35:50.945Z,25.79
2023-09-17T23:38:18.370Z,25.74
2023-09-17T23:40:45.330Z,25.86
2023-09-17T23:43:12.309Z,25.87
2023-09-17T23:45:40.279Z,25.92
2023-09-17T23:48:07.736Z,25.85
2023-09-17T23:50:34.851Z,25.88
2023-09-17T23:53:05.252Z,25.92
2023-09-17T23:55:32.530Z,25.89
2023-09-17T23:57:59.221Z,25.94
